createdAt,value
2019-02-20T00:01:48.467Z,6.60
2019-02-20T00:04:38.061Z,6.60
2019-02-20T00:07:20.571Z,6.70
2019-02-20T00:10:02.535Z,6.70
2019-02-20T00:12:45.361Z,6.70
2019-02-20T00:15:27.008Z,6.70
2019-02-20T00:18:09.688Z,6.70
2019-02-20T00:20:51.456Z,6.70
2019-02-20T00:23:34.217Z,6.70
2019-02-20T00:26:16.664Z,6.60
2019-02-20T00:28:57.252Z,6.60
2019-02-20T00:31:47.232Z,6.70
2019-02-20T00:34:48.181Z,6.70
2019-02-20T00:37:30.544Z,6.60
2019-02-20T00:40:12.583Z,6.70
2019-02-20T00:42:54.707Z,6.60
2019-02-20T00:45:59.126Z,6.70
2019-02-20T00:52:11.545Z,6.70
2019-02-20T00:54:54.188Z,6.60
2019-02-20T00:57:36.785Z,6.70
2019-02-20T01:00:19.609Z,6.70
2019-02-20T01:03:01.355Z,6.60
2019-02-20T01:05:44.141Z,6.60
2019-02-20T01:08:25.845Z,6.70
2019-02-20T01:11:08.349Z,6.70
2019-02-20T01:13:50.813Z,6.80
2019-02-20T01:16:32.990Z,6.80
2019-02-20T01:19:15.172Z,6.80
2019-02-20T01:21:58.448Z,6.70
2019-02-20T01:24:40.503Z,6.80
2019-02-20T01:27:22.800Z,6.80
2019-02-20T01:30:04.489Z,6.80
2019-02-20T01:32:47.444Z,6.80
2019-02-20T01:35:29.484Z,6.80
2019-02-20T01:38:11.848Z,6.80
2019-02-20T01:40:53.604Z,6.80
2019-02-20T01:43:36.062Z,6.80
2019-02-20T01:46:17.886Z,6.80
2019-02-20T01:48:59.633Z,6.90
2019-02-20T01:51:42.213Z,6.90
2019-02-20T01:54:24.875Z,6.90
2019-02-20T01:57:07.309Z,6.90
2019-02-20T01:59:50.016Z,6.80
2019-02-20T02:02:32.913Z,6.90
2019-02-20T02:05:15.911Z,6.80
2019-02-20T02:07:56.789Z,6.80
2019-02-20T02:10:46.101Z,6.90
2019-02-20T02:13:27.912Z,7.00
2019-02-20T02:16:09.628Z,6.90
2019-02-20T02:18:50.255Z,6.80
2019-02-20T02:21:39.896Z,6.80
2019-02-20T02:24:23.796Z,6.80
2019-02-20T02:27:04.499Z,6.90
2019-02-20T02:29:54.184Z,6.80
2019-02-20T02:32:37.025Z,6.70
2019-02-20T02:35:17.785Z,6.80
2019-02-20T02:38:07.339Z,6.80
2019-02-20T02:41:08.921Z,6.80
2019-02-20T02:43:51.321Z,6.80
2019-02-20T02:46:34.256Z,6.70
2019-02-20T02:49:17.161Z,6.70
2019-02-20T02:52:00.454Z,6.80
2019-02-20T02:54:42.711Z,6.80
2019-02-20T02:57:25.278Z,6.70
2019-02-20T03:00:07.270Z,6.70
2019-02-20T03:02:51.306Z,6.80
2019-02-20T03:05:33.517Z,6.70
2019-02-20T03:08:15.241Z,6.70
2019-02-20T03:10:57.123Z,6.80
2019-02-20T03:13:39.245Z,6.80
2019-02-20T03:16:21.467Z,6.80
2019-02-20T03:19:03.483Z,6.80
2019-02-20T03:21:44.465Z,6.90
2019-02-20T03:24:33.781Z,6.90
2019-02-20T03:27:16.120Z,6.90
2019-02-20T03:29:58.916Z,6.90
2019-02-20T03:32:41.522Z,6.80
2019-02-20T03:35:23.731Z,6.80
2019-02-20T03:38:06.599Z,6.80
2019-02-20T03:40:48.830Z,6.70
2019-02-20T03:43:31.085Z,6.70
2019-02-20T03:46:13.697Z,6.70
2019-02-20T03:48:54.260Z,6.70
2019-02-20T03:51:43.900Z,6.60
2019-02-20T03:54:25.723Z,6.70
2019-02-20T03:57:07.411Z,6.70
2019-02-20T03:59:49.550Z,6.60
2019-02-20T04:02:31.872Z,6.70
2019-02-20T04:05:12.574Z,6.60
2019-02-20T04:08:01.969Z,6.70
2019-02-20T04:10:44.145Z,6.70
2019-02-20T04:13:27.267Z,6.70
2019-02-20T04:16:09.886Z,6.70
2019-02-20T04:18:52.571Z,6.60
2019-02-20T04:21:35.329Z,6.60
2019-02-20T04:24:18.052Z,6.60
2019-02-20T04:26:58.771Z,6.60
2019-02-20T04:29:48.352Z,6.70
2019-02-20T04:32:30.762Z,6.70
2019-02-20T04:35:12.798Z,6.60
2019-02-20T04:37:54.953Z,6.50
2019-02-20T04:40:37.391Z,6.50
2019-02-20T04:43:20.268Z,6.50
2019-02-20T04:46:02.326Z,6.60
2019-02-20T04:48:44.142Z,6.60
2019-02-20T04:51:26.313Z,6.60
2019-02-20T04:54:13.329Z,6.50
2019-02-20T04:56:53.108Z,6.60
2019-02-20T04:59:35.585Z,6.60
2019-02-20T05:02:17.496Z,6.60
2019-02-20T05:05:00.571Z,6.60
2019-02-20T05:07:41.249Z,6.50
2019-02-20T05:10:23.009Z,6.60
2019-02-20T05:13:03.782Z,6.60
2019-02-20T05:15:53.182Z,6.60
2019-02-20T05:18:37.305Z,6.60
2019-02-20T05:21:19.458Z,6.60
2019-02-20T05:24:02.049Z,6.60
2019-02-20T05:26:44.162Z,6.60
2019-02-20T05:29:26.520Z,6.60
2019-02-20T05:32:08.913Z,6.60
2019-02-20T05:34:51.250Z,6.60
2019-02-20T05:37:33.322Z,6.60
2019-02-20T05:40:15.279Z,6.70
2019-02-20T05:42:57.589Z,6.70
2019-02-20T05:45:40.384Z,6.70
2019-02-20T05:48:23.116Z,6.70
2019-02-20T05:51:05.169Z,6.80
2019-02-20T05:53:47.768Z,6.80
2019-02-20T05:56:31.110Z,6.80
2019-02-20T05:59:13.631Z,6.80
2019-02-20T06:01:56.077Z,6.80
2019-02-20T06:04:38.456Z,6.80
2019-02-20T06:07:21.217Z,6.90
2019-02-20T06:10:01.972Z,6.90
2019-02-20T06:12:51.383Z,7.00
2019-02-20T06:15:33.133Z,6.90
2019-02-20T06:18:14.900Z,6.90
2019-02-20T06:20:57.404Z,7.00
2019-02-20T06:23:40.848Z,6.90
2019-02-20T06:26:23.517Z,7.00
2019-02-20T06:29:06.044Z,7.00
2019-02-20T06:31:47.803Z,7.00
2019-02-20T06:34:29.496Z,7.10
2019-02-20T06:37:11.702Z,7.10
2019-02-20T06:39:53.533Z,7.10
2019-02-20T06:42:35.312Z,7.10
2019-02-20T06:45:17.730Z,7.10
2019-02-20T06:47:58.183Z,7.10
2019-02-20T06:53:51.583Z,7.30
2019-02-20T06:56:33.429Z,7.30
2019-02-20T06:59:15.236Z,7.30
2019-02-20T07:01:57.192Z,7.40
2019-02-20T07:04:39.673Z,7.50
2019-02-20T07:07:22.339Z,7.50
2019-02-20T07:10:05.216Z,7.50
2019-02-20T07:12:47.476Z,7.50
2019-02-20T07:15:30.780Z,7.60
2019-02-20T07:18:14.360Z,7.60
2019-02-20T07:21:16.844Z,7.60
2019-02-20T07:24:25.516Z,7.80
2019-02-20T07:27:27.434Z,8.10
2019-02-20T07:30:09.877Z,8.20
2019-02-20T07:32:52.916Z,8.30
2019-02-20T07:35:35.524Z,8.20
2019-02-20T07:38:17.997Z,8.00
2019-02-20T07:41:00.603Z,8.00
2019-02-20T07:43:43.080Z,8.10
2019-02-20T07:46:25.823Z,8.10
2019-02-20T07:49:07.997Z,8.30
2019-02-20T07:51:50.510Z,8.30
2019-02-20T07:54:32.541Z,8.40
2019-02-20T07:57:14.885Z,8.30
2019-02-20T07:59:57.120Z,8.30
2019-02-20T08:02:37.778Z,8.30
2019-02-20T08:05:27.093Z,8.40
2019-02-20T08:08:09.952Z,8.40
2019-02-20T08:10:52.561Z,8.40
2019-02-20T08:13:39.389Z,8.60
2019-02-20T08:16:19.135Z,9.00
2019-02-20T08:19:01.937Z,9.30
2019-02-20T08:21:44.612Z,9.40
2019-02-20T08:24:26.325Z,9.60
2019-02-20T08:27:08.189Z,9.70
2019-02-20T08:29:50.256Z,9.60
2019-02-20T08:32:32.597Z,9.50
2019-02-20T08:35:13.313Z,9.20
2019-02-20T08:38:02.637Z,9.00
2019-02-20T08:40:44.665Z,8.80
2019-02-20T08:43:26.705Z,8.80
2019-02-20T08:46:08.913Z,8.80
2019-02-20T08:48:51.199Z,8.60
2019-02-20T08:51:33.938Z,8.70
2019-02-20T08:54:16.233Z,8.80
2019-02-20T08:56:56.634Z,8.90
2019-02-20T08:59:46.992Z,9.00
2019-02-20T09:02:29.236Z,9.10
2019-02-20T09:05:12.191Z,9.10
2019-02-20T09:07:55.064Z,9.10
2019-02-20T09:10:37.483Z,9.10
2019-02-20T09:13:19.284Z,9.30
2019-02-20T09:16:01.655Z,9.60
2019-02-20T09:18:44.208Z,9.50
2019-02-20T09:21:26.176Z,9.60
2019-02-20T09:24:08.851Z,9.80
2019-02-20T09:26:51.608Z,9.80
2019-02-20T09:29:33.308Z,9.90
2019-02-20T09:32:15.933Z,9.80
2019-02-20T09:34:57.713Z,9.70
2019-02-20T09:37:40.242Z,9.70
2019-02-20T09:40:22.433Z,9.60
2019-02-20T09:43:04.488Z,9.60
2019-02-20T09:45:46.237Z,9.70
2019-02-20T09:48:29.237Z,9.70
2019-02-20T09:51:11.917Z,9.70
2019-02-20T09:53:54.817Z,9.90
2019-02-20T09:56:36.942Z,10.00
2019-02-20T09:59:18.753Z,10.20
2019-02-20T10:02:00.892Z,10.20
2019-02-20T10:04:42.901Z,10.20
2019-02-20T10:07:26.250Z,10.00
2019-02-20T10:10:08.019Z,10.00
2019-02-20T10:12:50.642Z,9.90
2019-02-20T10:15:32.717Z,9.90
2019-02-20T10:18:14.534Z,9.80
2019-02-20T10:20:56.997Z,9.90
2019-02-20T10:23:38.685Z,10.00
2019-02-20T10:26:28.581Z,10.20
2019-02-20T10:29:10.348Z,10.20
2019-02-20T10:31:52.573Z,10.30
2019-02-20T10:34:35.228Z,10.40
2019-02-20T10:37:17.656Z,10.40
2019-02-20T10:39:59.842Z,10.60
2019-02-20T10:42:41.600Z,10.90
2019-02-20T10:45:24.296Z,11.10
2019-02-20T10:48:06.380Z,10.60
2019-02-20T10:50:49.142Z,10.50
2019-02-20T10:53:30.880Z,10.30
2019-02-20T10:56:11.395Z,10.40
2019-02-20T11:02:01.820Z,10.50
2019-02-20T11:04:44.149Z,10.80
2019-02-20T11:07:26.981Z,11.00
2019-02-20T11:10:08.990Z,10.80
2019-02-20T11:12:51.839Z,10.70
2019-02-20T11:15:34.717Z,10.70
2019-02-20T11:18:16.601Z,10.60
2019-02-20T11:20:59.561Z,10.50
2019-02-20T11:23:42.481Z,10.60
2019-02-20T11:26:24.653Z,10.50
2019-02-20T11:29:06.397Z,10.50
2019-02-20T11:31:48.548Z,10.40
2019-02-20T11:34:30.757Z,10.30
2019-02-20T11:37:13.414Z,10.10
2019-02-20T11:39:55.400Z,10.00
2019-02-20T11:42:37.625Z,10.30
2019-02-20T11:45:20.218Z,10.50
2019-02-20T11:48:02.721Z,10.60
2019-02-20T11:50:44.708Z,10.80
2019-02-20T11:53:27.288Z,11.10
2019-02-20T11:56:09.350Z,11.00
2019-02-20T11:58:52.129Z,11.00
2019-02-20T12:01:34.697Z,11.00
2019-02-20T12:04:17.302Z,10.70
2019-02-20T12:06:59.153Z,10.70
2019-02-20T12:09:41.572Z,10.70
2019-02-20T12:12:23.656Z,10.50
2019-02-20T12:15:05.993Z,10.50
2019-02-20T12:17:48.383Z,10.40
2019-02-20T12:20:31.134Z,10.50
2019-02-20T12:23:13.737Z,10.70
2019-02-20T12:25:56.649Z,10.70
2019-02-20T12:28:39.265Z,10.90
2019-02-20T12:31:22.049Z,11.10
2019-02-20T12:34:04.846Z,11.30
2019-02-20T12:36:46.685Z,11.60
2019-02-20T12:39:29.933Z,11.80
2019-02-20T12:42:13.137Z,11.60
2019-02-20T12:44:55.757Z,11.70
2019-02-20T12:47:37.505Z,11.70
2019-02-20T12:50:20.118Z,11.20
2019-02-20T12:53:01.828Z,11.10
2019-02-20T12:55:44.480Z,11.20
2019-02-20T12:58:26.467Z,11.20
2019-02-20T13:01:08.729Z,11.20
2019-02-20T13:03:50.773Z,11.40
2019-02-20T13:06:33.777Z,11.60
2019-02-20T13:09:18.564Z,11.60
2019-02-20T13:12:00.878Z,11.60
2019-02-20T13:14:43.773Z,11.50
2019-02-20T13:17:26.432Z,11.30
2019-02-20T13:20:08.970Z,11.20
2019-02-20T13:22:51.067Z,11.20
2019-02-20T13:25:33.613Z,11.10
2019-02-20T13:28:16.332Z,11.10
2019-02-20T13:31:00.195Z,11.00
2019-02-20T13:33:42.348Z,11.00
2019-02-20T13:36:24.993Z,11.10
2019-02-20T13:39:07.395Z,11.00
2019-02-20T13:41:50.964Z,10.90
2019-02-20T13:44:32.930Z,11.00
2019-02-20T13:47:15.757Z,11.10
2019-02-20T13:49:58.369Z,11.20
2019-02-20T13:52:41.316Z,11.20
2019-02-20T13:55:23.855Z,11.30
2019-02-20T13:58:06.245Z,11.20
2019-02-20T14:00:48.184Z,11.10
2019-02-20T14:03:30.254Z,11.00
2019-02-20T14:06:12.382Z,11.00
2019-02-20T14:08:53.481Z,11.00
2019-02-20T14:11:43.834Z,11.10
2019-02-20T14:14:46.673Z,11.20
2019-02-20T14:17:28.520Z,11.20
2019-02-20T14:20:10.811Z,11.20
2019-02-20T14:22:54.061Z,11.20
2019-02-20T14:25:36.497Z,11.10
2019-02-20T14:28:19.820Z,10.90
2019-02-20T14:31:02.024Z,11.00
2019-02-20T14:33:44.069Z,10.90
2019-02-20T14:36:26.899Z,10.90
2019-02-20T14:39:09.757Z,11.00
2019-02-20T14:41:52.091Z,10.80
2019-02-20T14:44:32.508Z,10.70
2019-02-20T14:47:21.895Z,10.80
2019-02-20T14:50:10.211Z,10.70
2019-02-20T14:52:53.088Z,10.70
2019-02-20T14:55:36.122Z,10.80
2019-02-20T14:58:18.108Z,10.50
2019-02-20T15:01:00.738Z,10.60
2019-02-20T15:03:44.388Z,10.70
2019-02-20T15:06:26.377Z,10.80
2019-02-20T15:09:08.156Z,10.90
2019-02-20T15:11:51.704Z,11.00
2019-02-20T15:14:34.719Z,11.00
2019-02-20T15:17:17.536Z,10.80
2019-02-20T15:20:00.096Z,10.80
2019-02-20T15:22:42.927Z,10.90
2019-02-20T15:25:24.969Z,10.90
2019-02-20T15:28:07.185Z,10.80
2019-02-20T15:30:50.462Z,10.80
2019-02-20T15:33:32.152Z,10.60
2019-02-20T15:36:15.056Z,10.60
2019-02-20T15:38:58.180Z,10.50
2019-02-20T15:41:40.762Z,10.40
2019-02-20T15:44:23.416Z,10.50
2019-02-20T15:47:06.005Z,10.40
2019-02-20T15:49:48.560Z,10.50
2019-02-20T15:52:31.266Z,10.30
2019-02-20T15:55:13.769Z,10.30
2019-02-20T15:57:56.460Z,10.30
2019-02-20T16:00:38.233Z,10.30
2019-02-20T16:03:22.141Z,10.30
2019-02-20T16:06:04.922Z,10.20
2019-02-20T16:08:47.468Z,10.20
2019-02-20T16:11:29.879Z,10.10
2019-02-20T16:14:11.796Z,10.10
2019-02-20T16:16:54.457Z,10.10
2019-02-20T16:19:36.319Z,10.00
2019-02-20T16:22:18.822Z,10.00
2019-02-20T16:25:01.390Z,9.90
2019-02-20T16:27:47.070Z,9.90
2019-02-20T16:30:28.381Z,9.90
2019-02-20T16:33:11.108Z,9.90
2019-02-20T16:35:53.379Z,9.80
2019-02-20T16:38:43.099Z,9.80
2019-02-20T16:41:25.516Z,9.80
2019-02-20T16:44:10.012Z,9.80
2019-02-20T16:46:52.101Z,9.90
2019-02-20T16:49:34.821Z,9.80
2019-02-20T16:52:17.561Z,9.80
2019-02-20T16:55:00.281Z,9.80
2019-02-20T16:57:42.944Z,9.80
2019-02-20T17:00:25.253Z,9.80
2019-02-20T17:03:07.843Z,9.80
2019-02-20T17:05:50.354Z,9.80
2019-02-20T17:08:32.329Z,9.80
2019-02-20T17:11:14.459Z,9.80
2019-02-20T17:13:56.774Z,9.80
2019-02-20T17:16:39.363Z,9.80
2019-02-20T17:19:21.866Z,9.80
2019-02-20T17:22:04.186Z,9.80
2019-02-20T17:24:46.485Z,9.80
2019-02-20T17:27:28.249Z,9.80
2019-02-20T17:30:11.309Z,9.70
2019-02-20T17:32:53.761Z,9.70
2019-02-20T17:35:36.123Z,9.60
2019-02-20T17:38:19.126Z,9.60
2019-02-20T17:41:00.970Z,9.60
2019-02-20T17:43:44.709Z,9.60
2019-02-20T17:46:27.326Z,9.50
2019-02-20T17:49:09.293Z,9.60
2019-02-20T17:51:52.185Z,9.50
2019-02-20T17:54:34.101Z,9.60
2019-02-20T17:57:16.275Z,9.60
2019-02-20T17:59:58.874Z,9.60
2019-02-20T18:02:40.996Z,9.50
2019-02-20T18:05:24.098Z,9.50
2019-02-20T18:08:06.826Z,9.50
2019-02-20T18:10:48.752Z,9.50
2019-02-20T18:13:38.063Z,9.50
2019-02-20T18:16:20.918Z,9.50
2019-02-20T18:19:03.353Z,9.50
2019-02-20T18:21:45.825Z,9.50
2019-02-20T18:24:28.391Z,9.50
2019-02-20T18:27:12.405Z,9.50
2019-02-20T18:29:54.733Z,9.50
2019-02-20T18:32:37.470Z,9.50
2019-02-20T18:35:19.473Z,9.50
2019-02-20T18:38:02.397Z,9.50
2019-02-20T18:40:44.903Z,9.50
2019-02-20T18:43:27.842Z,9.40
2019-02-20T18:46:10.373Z,9.40
2019-02-20T18:48:53.936Z,9.30
2019-02-20T18:51:35.778Z,9.30
2019-02-20T18:54:17.965Z,9.40
2019-02-20T18:57:00.253Z,9.40
2019-02-20T18:59:42.811Z,9.50
2019-02-20T19:02:24.901Z,9.40
2019-02-20T19:05:07.529Z,9.40
2019-02-20T19:07:49.352Z,9.40
2019-02-20T19:10:31.829Z,9.40
2019-02-20T19:13:13.858Z,9.40
2019-02-20T19:15:56.226Z,9.40
2019-02-20T19:18:38.949Z,9.40
2019-02-20T19:21:20.990Z,9.40
2019-02-20T19:24:03.049Z,9.40
2019-02-20T19:26:45.502Z,9.30
2019-02-20T19:29:28.150Z,9.30
2019-02-20T19:32:21.434Z,9.30
2019-02-20T19:35:04.521Z,9.30
2019-02-20T19:37:47.412Z,9.20
2019-02-20T19:40:29.867Z,9.20
2019-02-20T19:43:12.766Z,9.20
2019-02-20T19:45:55.446Z,9.20
2019-02-20T19:48:37.778Z,9.20
2019-02-20T19:51:21.920Z,9.20
2019-02-20T19:54:05.137Z,9.10
2019-02-20T19:56:48.078Z,9.10
2019-02-20T19:59:30.500Z,9.10
2019-02-20T20:02:13.290Z,9.00
2019-02-20T20:04:56.700Z,8.90
2019-02-20T20:07:39.303Z,8.80
2019-02-20T20:10:21.997Z,8.90
2019-02-20T20:13:04.185Z,8.90
2019-02-20T20:15:46.749Z,8.90
2019-02-20T20:18:28.812Z,8.90
2019-02-20T20:21:10.645Z,8.80
2019-02-20T20:23:53.529Z,8.70
2019-02-20T20:26:36.002Z,8.60
2019-02-20T20:29:19.183Z,8.50
2019-02-20T20:32:01.273Z,8.50
2019-02-20T20:34:43.239Z,8.50
2019-02-20T20:37:25.784Z,8.50
2019-02-20T20:40:08.719Z,8.40
2019-02-20T20:42:51.838Z,8.40
2019-02-20T20:45:35.673Z,8.40
2019-02-20T20:48:17.973Z,8.40
2019-02-20T20:50:59.772Z,8.30
2019-02-20T20:53:42.037Z,8.30
2019-02-20T20:56:24.800Z,8.40
2019-02-20T20:59:17.545Z,8.30
2019-02-20T21:02:42.085Z,8.30
2019-02-20T21:09:34.146Z,8.30
2019-02-20T21:12:16.262Z,8.30
2019-02-20T21:14:58.911Z,8.30
2019-02-20T21:17:41.647Z,8.40
2019-02-20T21:20:31.557Z,8.30
2019-02-20T21:23:13.618Z,8.30
2019-02-20T21:25:55.417Z,8.30
2019-02-20T21:28:38.029Z,8.30
2019-02-20T21:31:21.361Z,8.30
2019-02-20T21:34:03.669Z,8.20
2019-02-20T21:36:45.969Z,8.20
2019-02-20T21:39:28.149Z,8.20
2019-02-20T21:42:11.118Z,8.20
2019-02-20T21:44:53.724Z,8.20
2019-02-20T21:47:36.561Z,8.10
2019-02-20T21:50:19.279Z,8.10
2019-02-20T21:53:01.961Z,8.00
2019-02-20T21:55:44.349Z,7.90
2019-02-20T21:58:27.249Z,7.90
2019-02-20T22:01:10.043Z,7.80
2019-02-20T22:03:52.809Z,7.70
2019-02-20T22:06:35.728Z,7.70
2019-02-20T22:09:18.817Z,7.70
2019-02-20T22:12:02.668Z,7.60
2019-02-20T22:14:45.334Z,7.60
2019-02-20T22:17:28.001Z,7.60
2019-02-20T22:20:10.813Z,7.60
2019-02-20T22:22:52.805Z,7.50
2019-02-20T22:25:35.662Z,7.50
2019-02-20T22:28:18.160Z,7.50
2019-02-20T22:31:00.976Z,7.40
2019-02-20T22:33:43.557Z,7.40
2019-02-20T22:36:26.286Z,7.30
2019-02-20T22:39:08.584Z,7.30
2019-02-20T22:41:53.332Z,7.30
2019-02-20T22:44:35.297Z,7.20
2019-02-20T22:47:17.936Z,7.10
2019-02-20T22:50:00.568Z,7.10
2019-02-20T22:52:43.286Z,7.10
2019-02-20T22:55:25.320Z,7.00
2019-02-20T22:58:09.746Z,6.90
2019-02-20T23:00:51.170Z,6.80
2019-02-20T23:03:35.133Z,6.80
2019-02-20T23:08:57.909Z,6.70
2019-02-20T23:11:40.212Z,6.60
2019-02-20T23:14:22.872Z,6.50
2019-02-20T23:17:05.481Z,6.40
2019-02-20T23:19:47.967Z,6.30
2019-02-20T23:22:30.919Z,6.30
2019-02-20T23:25:13.268Z,6.30
2019-02-20T23:27:55.368Z,6.40
2019-02-20T23:30:38.121Z,6.50
2019-02-20T23:33:20.408Z,6.50
2019-02-20T23:36:01.273Z,6.50
2019-02-20T23:38:50.836Z,6.50
2019-02-20T23:41:33.296Z,6.40
2019-02-20T23:44:15.040Z,6.50
2019-02-20T23:46:57.776Z,6.50
2019-02-20T23:49:41.409Z,6.50
2019-02-20T23:52:23.168Z,6.50
2019-02-20T23:54:53.742Z,6.50
2019-02-20T23:57:24.097Z,6.40
